Time;durP1;ratioP1;P1;durP2;ratioP2;P2;SDS_P1;SDS_P2;PMS_P1;PMS_P2;Temp;Humidity;BMP_temperature;BMP_pressure;BME280_temperature;BME280_humidity;BME280_pressure;Samples;Min_cycle;Max_cycle;Signal;HPM_P1;HPM_P2
2023/06/21 03:41:25;;;;;;;34.22;30.75;;;;;;;20.86;100.00;100396.66;4925283;29;20543;-57
2023/06/21 03:43:53;;;;;;;31.77;28.70;;;;;;;20.86;100.00;100397.50;4933890;29;20087;-56
2023/06/21 03:46:20;;;;;;;33.90;30.27;;;;;;;20.88;100.00;100416.91;4933276;29;20052;-54
2023/06/21 03:48:51;;;;;;;35.75;32.45;;;;;;;20.81;100.00;100423.09;4936810;29;20079;-56
2023/06/21 03:51:18;;;;;;;38.40;34.47;;;;;;;20.74;100.00;100418.34;4931942;29;20147;-58
2023/06/21 03:53:45;;;;;;;36.30;32.55;;;;;;;20.73;100.00;100419.34;4937395;29;20143;-52
2023/06/21 03:56:12;;;;;;;34.92;31.52;;;;;;;20.76;100.00;100433.41;4931314;29;20056;-54
2023/06/21 03:58:41;;;;;;;36.03;32.65;;;;;;;20.78;100.00;100436.78;4932127;29;20079;-55
2023/06/21 04:01:09;;;;;;;38.97;34.45;;;;;;;20.81;100.00;100431.09;4928998;29;20583;-52
2023/06/21 04:03:36;;;;;;;35.83;32.15;;;;;;;20.82;100.00;100432.78;4928819;29;20087;-53
2023/06/21 04:06:03;;;;;;;36.65;32.85;;;;;;;20.87;100.00;100435.81;4928227;29;20060;-55
2023/06/21 04:08:30;;;;;;;33.72;30.40;;;;;;;20.90;100.00;100430.97;4928302;29;20479;-56
2023/06/21 04:10:58;;;;;;;35.38;31.88;;;;;;;20.95;100.00;100428.63;4927610;29;20083;-53
2023/06/21 04:13:25;;;;;;;35.22;31.75;;;;;;;21.01;100.00;100432.50;4927197;29;20143;-54
2023/06/21 04:15:52;;;;;;;33.28;30.10;;;;;;;21.07;100.00;100433.69;4924431;28;20063;-55
2023/06/21 04:18:19;;;;;;;32.65;29.33;;;;;;;21.10;100.00;100447.59;4927462;29;20601;-54
2023/06/21 04:20:49;;;;;;;33.83;30.65;;;;;;;21.16;100.00;100435.38;4916790;29;20047;-56
2023/06/21 04:23:16;;;;;;;34.13;30.92;;;;;;;21.19;100.00;100430.53;4927201;29;20152;-56
2023/06/21 04:25:43;;;;;;;37.15;33.60;;;;;;;21.24;100.00;100436.22;4928759;29;20052;-55
2023/06/21 04:28:11;;;;;;;35.42;32.25;;;;;;;21.29;100.00;100438.41;4931362;29;20170;-56
2023/06/21 04:30:38;;;;;;;35.88;32.50;;;;;;;21.36;100.00;100458.22;4929795;29;20079;-51
2023/06/21 04:33:05;;;;;;;37.45;33.55;;;;;;;21.37;100.00;100469.78;4927190;29;20056;-58
2023/06/21 04:35:33;;;;;;;36.05;32.50;;;;;;;21.42;100.00;100491.53;4933049;28;20114;-56
2023/06/21 04:38:00;;;;;;;38.20;34.47;;;;;;;21.46;100.00;100509.78;4930727;29;20058;-52
2023/06/21 04:40:27;;;;;;;39.95;35.80;;;;;;;21.48;100.00;100515.84;4924511;29;20048;-55
2023/06/21 04:42:54;;;;;;;42.60;37.45;;;;;;;21.45;100.00;100542.09;4926269;29;20114;-56
2023/06/21 04:45:25;;;;;;;43.55;39.35;;;;;;;21.33;100.00;100543.41;4928968;29;20425;-52
2023/06/21 04:47:57;;;;;;;42.72;38.55;;;;;;;21.33;100.00;100538.03;4927133;29;20135;-52
2023/06/21 04:50:25;;;;;;;40.30;36.30;;;;;;;21.38;100.00;100531.19;4926618;29;20097;-54
2023/06/21 04:52:57;;;;;;;40.08;35.95;;;;;;;21.46;100.00;100541.94;4926289;29;20503;-50
2023/06/21 04:55:27;;;;;;;45.08;40.53;;;;;;;21.56;100.00;100546.31;4925384;29;20063;-55
2023/06/21 04:57:55;;;;;;;38.33;34.58;;;;;;;21.62;100.00;100551.03;4928760;29;20147;-57
2023/06/21 05:00:22;;;;;;;40.30;36.20;;;;;;;21.68;100.00;100539.66;4928682;29;20094;-52
2023/06/21 05:02:50;;;;;;;44.63;40.25;;;;;;;21.71;100.00;100542.84;4928039;29;20479;-58
2023/06/21 05:05:18;;;;;;;43.95;39.42;;;;;;;21.72;100.00;100549.88;4928943;29;20532;-52
2023/06/21 05:07:45;;;;;;;42.55;38.30;;;;;;;21.72;100.00;100541.00;4929291;29;20043;-53
2023/06/21 05:10:12;;;;;;;42.08;38.00;;;;;;;21.77;100.00;100543.19;4927040;29;20084;-53
2023/06/21 05:12:40;;;;;;;40.42;36.33;;;;;;;21.79;100.00;100542.00;4923097;28;20171;-55
2023/06/21 05:15:07;;;;;;;43.50;39.35;;;;;;;21.81;100.00;100547.22;4924345;29;20047;-59
2023/06/21 05:17:35;;;;;;;46.97;42.28;;;;;;;21.73;100.00;100537.31;4912222;29;20928;-54
2023/06/21 05:20:04;;;;;;;43.33;39.33;;;;;;;21.75;100.00;100532.66;4931024;29;20110;-60
2023/06/21 05:22:31;;;;;;;42.35;38.15;;;;;;;21.85;100.00;100532.47;4928776;29;20062;-54
2023/06/21 05:25:01;;;;;;;43.60;39.40;;;;;;;21.91;100.00;100529.13;4929619;29;20165;-56
2023/06/21 05:27:29;;;;;;;43.63;39.30;;;;;;;21.97;100.00;100539.19;4931215;29;20516;-56
2023/06/21 05:29:56;;;;;;;43.60;39.47;;;;;;;22.01;100.00;100551.25;4930401;29;20044;-49
2023/06/21 05:32:25;;;;;;;43.22;38.70;;;;;;;22.06;100.00;100540.03;4926236;29;20052;-58
2023/06/21 05:34:53;;;;;;;39.90;36.10;;;;;;;22.11;100.00;100543.03;4928647;29;20409;-55
2023/06/21 05:37:22;;;;;;;38.97;35.25;;;;;;;22.22;100.00;100551.63;4925769;29;20060;-55
2023/06/21 05:39:49;;;;;;;37.72;34.13;;;;;;;22.27;100.00;100547.59;4923853;29;20063;-56
2023/06/21 05:42:16;;;;;;;40.55;36.53;;;;;;;22.20;100.00;100545.59;4928286;29;20043;-58
2023/06/21 05:44:43;;;;;;;39.75;36.15;;;;;;;22.21;100.00;100541.06;4922597;29;20139;-58
2023/06/21 05:47:11;;;;;;;39.03;35.20;;;;;;;22.27;100.00;100553.81;4929990;29;20468;-60
2023/06/21 05:49:38;;;;;;;37.03;33.42;;;;;;;22.36;100.00;100565.38;4926674;29;20082;-55
2023/06/21 05:52:06;;;;;;;38.20;34.33;;;;;;;22.43;100.00;100571.75;4927502;29;20143;-54
2023/06/21 05:54:33;;;;;;;36.05;32.75;;;;;;;22.58;100.00;100575.41;4938332;28;22059;-53
2023/06/21 05:57:05;;;;;;;33.85;30.58;;;;;;;22.65;100.00;100567.50;4936117;29;20052;-53
2023/06/21 05:59:33;;;;;;;34.17;31.13;;;;;;;22.68;100.00;100573.38;4936810;29;20063;-53
2023/06/21 06:02:00;;;;;;;33.97;30.88;;;;;;;22.70;100.00;100568.69;4937391;29;20489;-56
2023/06/21 06:04:27;;;;;;;31.90;28.92;;;;;;;22.78;100.00;100566.97;4944100;29;20159;-53
2023/06/21 06:06:54;;;;;;;33.97;30.55;;;;;;;22.79;100.00;100568.69;4930650;29;20086;-53
2023/06/21 06:09:23;;;;;;;36.10;32.33;;;;;;;22.77;100.00;100571.53;4944990;29;20503;-55
2023/06/21 06:11:50;;;;;;;36.00;32.25;;;;;;;22.67;100.00;100571.72;4941641;29;20142;-52
2023/06/21 06:14:18;;;;;;;34.53;31.25;;;;;;;22.67;100.00;100584.28;4938370;29;20512;-54
2023/06/21 06:16:45;;;;;;;34.95;31.55;;;;;;;22.67;100.00;100586.97;4938305;29;20206;-57
2023/06/21 06:19:13;;;;;;;33.83;30.45;;;;;;;22.67;100.00;100586.97;4939236;28;20144;-55
2023/06/21 06:21:41;;;;;;;33.17;29.77;;;;;;;22.76;100.00;100580.59;4929356;29;20137;-53
2023/06/21 06:24:08;;;;;;;33.47;30.23;;;;;;;22.83;100.00;100586.09;4941391;28;20055;-58
2023/06/21 06:26:35;;;;;;;32.85;29.73;;;;;;;22.84;100.00;100580.56;4941386;28;20093;-57
2023/06/21 06:29:02;;;;;;;33.72;30.23;;;;;;;22.84;100.00;100590.47;4943953;29;20154;-54
2023/06/21 06:31:30;;;;;;;32.65;29.58;;;;;;;22.79;100.00;100579.41;4939998;28;20082;-58
2023/06/21 06:33:58;;;;;;;31.88;28.63;;;;;;;22.90;100.00;100576.41;4936202;28;20055;-51
2023/06/21 06:36:25;;;;;;;33.05;29.77;;;;;;;23.02;100.00;100591.13;4941174;29;20124;-56
2023/06/21 06:38:52;;;;;;;29.58;26.98;;;;;;;23.19;100.00;100589.22;4940186;29;20443;-54
2023/06/21 06:41:19;;;;;;;30.90;28.00;;;;;;;23.31;98.93;100595.06;4939034;29;20649;-52
2023/06/21 06:43:47;;;;;;;32.65;29.45;;;;;;;23.52;96.89;100597.16;4940855;29;20102;-51
2023/06/21 06:46:14;;;;;;;30.83;27.88;;;;;;;23.66;96.56;100591.91;4938047;29;20075;-54
2023/06/21 06:48:41;;;;;;;32.97;29.83;;;;;;;23.78;95.15;100595.03;4940665;28;20111;-50
2023/06/21 06:51:08;;;;;;;32.83;29.77;;;;;;;23.95;94.51;100598.44;4934506;28;20052;-53
2023/06/21 06:53:36;;;;;;;34.70;31.42;;;;;;;24.06;93.51;100595.34;4939697;28;20058;-52
2023/06/21 06:56:03;;;;;;;32.63;29.08;;;;;;;24.06;92.81;100599.91;4938519;29;20054;-51
2023/06/21 06:58:31;;;;;;;29.67;26.55;;;;;;;24.09;92.80;100597.69;4935575;29;20627;-55
2023/06/21 07:00:59;;;;;;;28.42;25.67;;;;;;;24.19;92.65;100600.16;4937836;29;20510;-59
2023/06/21 07:03:26;;;;;;;27.90;25.25;;;;;;;24.32;91.84;100604.94;4940644;29;20091;-54
2023/06/21 07:05:53;;;;;;;29.85;26.90;;;;;;;24.28;89.91;100606.31;4942963;28;20086;-50
2023/06/21 07:08:21;;;;;;;26.15;23.55;;;;;;;24.32;90.56;100613.00;4935264;29;20115;-56
2023/06/21 07:10:48;;;;;;;28.48;25.77;;;;;;;24.41;90.19;100607.41;4941146;29;20060;-57
2023/06/21 07:13:16;;;;;;;25.77;23.45;;;;;;;24.52;89.66;100608.81;4945933;29;20133;-57
2023/06/21 07:15:44;;;;;;;24.90;22.60;;;;;;;24.47;88.50;100616.59;4934158;29;20098;-57
2023/06/21 07:18:11;;;;;;;26.10;23.42;;;;;;;24.37;87.85;100614.16;4936404;29;20056;-53
2023/06/21 07:20:38;;;;;;;27.52;24.88;;;;;;;24.30;89.06;100621.22;4938946;29;20135;-51
2023/06/21 07:23:06;;;;;;;26.40;24.00;;;;;;;24.33;88.74;100622.75;4935310;28;20491;-56
2023/06/21 07:25:33;;;;;;;24.13;21.83;;;;;;;24.52;86.71;100637.59;4946329;29;20106;-57
2023/06/21 07:28:01;;;;;;;22.33;20.00;;;;;;;24.53;85.92;100653.53;4947158;29;20138;-49
2023/06/21 07:30:28;;;;;;;21.48;19.33;;;;;;;24.50;84.71;100651.22;4932346;29;20059;-56
2023/06/21 07:32:56;;;;;;;20.70;18.70;;;;;;;24.38;85.99;100648.13;4939359;29;20086;-50
2023/06/21 07:35:23;;;;;;;20.50;18.27;;;;;;;24.37;87.03;100653.69;4941256;28;20055;-56
2023/06/21 07:37:50;;;;;;;19.58;17.73;;;;;;;24.38;87.47;100655.34;4923432;29;20086;-53
2023/06/21 07:40:17;;;;;;;21.48;19.42;;;;;;;24.44;88.00;100666.22;4931359;29;20090;-55
2023/06/21 07:42:45;;;;;;;22.52;20.33;;;;;;;24.17;89.16;100664.03;4932134;29;20143;-56
2023/06/21 07:45:13;;;;;;;23.85;21.45;;;;;;;23.90;88.68;100662.66;4938206;29;20056;-53
2023/06/21 07:47:41;;;;;;;32.97;28.15;;;;;;;24.04;89.05;100671.84;4933065;29;20143;-48
2023/06/21 07:50:09;;;;;;;42.08;37.58;;;;;;;24.19;88.65;100662.84;4935743;29;20083;-54
2023/06/21 07:52:48;;;;;;;24.30;21.80;;;;;;;24.37;86.66;100675.22;4935203;29;20059;-46
2023/06/21 07:55:16;;;;;;;21.45;19.38;;;;;;;24.30;85.79;100677.72;4929500;29;20454;-49
2023/06/21 07:57:43;;;;;;;20.35;18.38;;;;;;;24.11;86.86;100676.34;4939313;29;20138;-51
2023/06/21 08:00:11;;;;;;;21.08;19.13;;;;;;;24.30;86.79;100676.91;4933927;29;20142;-49
2023/06/21 08:02:42;;;;;;;19.08;17.30;;;;;;;24.55;86.59;100691.06;4933253;29;20132;-47
2023/06/21 08:05:09;;;;;;;20.48;17.13;;;;;;;24.77;83.49;100690.22;4939857;29;20055;-49
2023/06/21 08:07:36;;;;;;;20.45;17.52;;;;;;;24.63;82.37;100686.44;4935118;29;20147;-49
2023/06/21 08:10:04;;;;;;;18.05;16.25;;;;;;;24.65;82.95;100676.31;4932447;29;20158;-49
2023/06/21 08:12:31;;;;;;;19.17;17.13;;;;;;;24.64;83.25;100693.50;4941601;29;20232;-50
2023/06/21 08:15:03;;;;;;;16.83;14.90;;;;;;;24.87;83.03;100690.78;4968251;23;20062;-51
2023/06/21 08:17:30;;;;;;;17.45;15.85;;;;;;;24.93;82.93;100703.50;4970521;28;20050;-51
2023/06/21 08:19:58;;;;;;;15.57;14.07;;;;;;;25.06;82.39;100700.19;4974364;28;20059;-50
2023/06/21 08:22:26;;;;;;;19.55;13.90;;;;;;;25.11;81.05;100691.59;4972317;28;20068;-49
2023/06/21 08:24:54;;;;;;;15.30;13.77;;;;;;;25.31;81.42;100695.44;4979720;28;20129;-52
2023/06/21 08:27:22;;;;;;;17.10;13.60;;;;;;;25.56;81.01;100700.56;4994926;28;20559;-53
2023/06/21 08:29:49;;;;;;;15.55;13.95;;;;;;;25.54;78.04;100706.13;4978468;28;20085;-57
2023/06/21 08:32:17;;;;;;;25.10;22.65;;;;;;;25.62;79.13;100707.88;4991377;28;20046;-50
2023/06/21 08:34:44;;;;;;;22.02;19.80;;;;;;;25.66;77.43;100709.19;4993459;28;20109;-52
2023/06/21 08:37:11;;;;;;;18.40;14.82;;;;;;;25.70;76.20;100703.22;4988194;28;20461;-52
2023/06/21 08:39:39;;;;;;;15.88;13.90;;;;;;;25.87;75.30;100711.16;4988371;28;20134;-50
2023/06/21 08:42:06;;;;;;;14.05;12.63;;;;;;;26.01;75.23;100707.59;4988346;28;20160;-48
2023/06/21 08:44:34;;;;;;;13.90;12.63;;;;;;;26.13;74.97;100716.88;4991130;28;20145;-53
2023/06/21 08:47:03;;;;;;;14.52;13.18;;;;;;;26.00;74.87;100720.25;4989362;28;20137;-58
2023/06/21 08:49:32;;;;;;;13.48;12.23;;;;;;;26.23;74.46;100722.81;4990611;28;20070;-50
2023/06/21 08:52:01;;;;;;;15.13;13.82;;;;;;;26.35;73.75;100719.63;4983692;28;20053;-51
2023/06/21 08:54:29;;;;;;;15.30;13.48;;;;;;;26.29;74.52;100715.81;4985248;28;20077;-54
2023/06/21 08:57:03;;;;;;;16.30;14.00;;;;;;;26.35;74.39;100725.84;4977409;28;20080;-50
2023/06/21 08:59:35;;;;;;;13.60;12.40;;;;;;;26.29;75.43;100732.00;4989746;28;20468;-51
2023/06/21 09:02:24;;;;;;;12.98;11.60;;;;;;;26.43;74.66;100730.28;4986601;28;20122;-54
2023/06/21 09:04:53;;;;;;;14.93;13.27;;;;;;;26.40;73.71;100727.97;4989426;28;20138;-49
2023/06/21 09:07:22;;;;;;;13.27;12.07;;;;;;;26.47;73.38;100731.59;4990402;28;20051;-53
2023/06/21 09:09:51;;;;;;;13.73;12.20;;;;;;;26.39;73.06;100739.81;4973914;28;20145;-52
2023/06/21 09:12:18;;;;;;;13.40;11.98;;;;;;;26.20;73.30;100743.94;4969865;28;20166;-54
2023/06/21 09:14:46;;;;;;;13.40;11.05;;;;;;;26.32;72.89;100744.28;4984166;28;20138;-52
2023/06/21 09:17:13;;;;;;;12.00;10.55;;;;;;;26.38;71.88;100755.13;4991523;28;20070;-52
2023/06/21 09:19:44;;;;;;;31.42;28.13;;;;;;;26.37;71.27;100752.66;4974076;28;20078;-51
2023/06/21 09:22:13;;;;;;;75.93;67.57;;;;;;;26.40;71.49;100754.97;4986814;28;20588;-53
2023/06/21 09:24:40;;;;;;;24.88;19.38;;;;;;;26.59;70.72;100753.53;4972363;28;20058;-53
2023/06/21 09:27:07;;;;;;;10.65;9.70;;;;;;;26.66;71.00;100755.28;4988196;28;20055;-54
2023/06/21 09:29:34;;;;;;;11.73;10.52;;;;;;;26.59;70.22;100758.94;4996541;28;20137;-54
2023/06/21 09:32:02;;;;;;;10.55;9.55;;;;;;;26.81;69.88;100765.19;4987610;28;20078;-52
2023/06/21 09:34:29;;;;;;;12.32;9.57;;;;;;;26.95;69.31;100769.69;4989694;28;20069;-52
2023/06/21 09:36:57;;;;;;;12.77;9.95;;;;;;;26.95;68.59;100775.91;4989471;28;20069;-50
2023/06/21 09:39:25;;;;;;;10.73;9.63;;;;;;;27.07;67.70;100770.84;4989563;28;20404;-54
2023/06/21 09:41:53;;;;;;;10.25;9.30;;;;;;;27.24;67.50;100766.00;4990247;28;20043;-51
2023/06/21 09:44:21;;;;;;;10.52;9.52;;;;;;;27.47;66.44;100787.41;4973422;28;20105;-50
2023/06/21 09:46:48;;;;;;;9.18;8.25;;;;;;;27.16;65.66;100767.00;4988183;28;20046;-53
2023/06/21 09:49:16;;;;;;;12.00;8.93;;;;;;;27.20;65.78;100781.78;4988240;28;20050;-54
2023/06/21 09:51:45;;;;;;;9.25;8.45;;;;;;;27.18;65.89;100773.03;4987498;28;20056;-53
2023/06/21 09:54:12;;;;;;;9.95;8.20;;;;;;;27.42;65.92;100779.03;4985868;28;20105;-56
2023/06/21 09:56:40;;;;;;;11.23;8.80;;;;;;;27.20;65.53;100778.25;4988278;28;20046;-56
2023/06/21 09:59:18;;;;;;;12.05;9.27;;;;;;;27.50;64.50;100773.47;4988468;28;20137;-54
2023/06/21 10:01:49;;;;;;;9.80;8.57;;;;;;;27.61;63.54;100772.94;4988022;28;20050;-56
2023/06/21 10:04:17;;;;;;;9.18;8.30;;;;;;;27.41;63.80;100774.66;4990400;28;20109;-56
2023/06/21 10:06:49;;;;;;;9.60;8.68;;;;;;;27.06;65.41;100771.00;4987975;28;20326;-54
2023/06/21 10:09:17;;;;;;;10.93;8.60;;;;;;;27.04;66.52;100775.78;4970706;28;20161;-53
2023/06/21 10:11:44;;;;;;;9.80;8.75;;;;;;;27.21;65.97;100778.06;4990743;28;20083;-52
2023/06/21 10:14:23;;;;;;;10.48;8.45;;;;;;;27.25;64.34;100786.59;4988772;28;20073;-54
2023/06/21 10:16:52;;;;;;;10.07;8.23;;;;;;;27.37;62.66;100798.53;4982239;28;20042;-56
2023/06/21 10:19:26;;;;;;;9.45;8.55;;;;;;;27.36;63.72;100788.75;4988530;28;20698;-53
2023/06/21 10:22:20;;;;;;;9.95;8.43;;;;;;;27.55;63.44;100789.09;4989700;28;20050;-53
2023/06/21 10:24:49;;;;;;;9.38;8.15;;;;;;;27.75;63.50;100779.28;4987519;28;20135;-52
2023/06/21 10:27:20;;;;;;;8.68;7.88;;;;;;;28.04;62.98;100785.47;4985527;28;20066;-52
2023/06/21 10:29:56;;;;;;;12.88;8.25;;;;;;;28.29;61.17;100783.94;4989523;28;20058;-53
2023/06/21 10:32:24;;;;;;;8.60;7.55;;;;;;;28.58;60.69;100782.78;4982753;28;20078;-55
2023/06/21 10:35:09;;;;;;;9.60;8.60;;;;;;;28.62;58.96;100792.16;4989716;28;20073;-51
2023/06/21 10:37:48;;;;;;;8.88;7.97;;;;;;;28.27;59.72;100784.09;4987152;28;20137;-53
2023/06/21 10:40:17;;;;;;;8.65;7.80;;;;;;;28.13;60.20;100795.91;4987912;28;20492;-52
2023/06/21 10:42:45;;;;;;;11.50;7.78;;;;;;;28.11;58.73;100800.72;4980525;28;20137;-53
2023/06/21 10:45:13;;;;;;;9.90;8.00;;;;;;;28.14;59.56;100784.06;4988518;28;20054;-52
2023/06/21 10:47:40;;;;;;;13.75;8.10;;;;;;;28.12;58.31;100778.03;4985556;28;20081;-51
2023/06/21 10:50:09;;;;;;;8.90;7.40;;;;;;;28.19;58.61;100783.44;4986086;28;20571;-56
2023/06/21 10:52:37;;;;;;;7.97;7.28;;;;;;;28.11;58.16;100798.00;4986986;28;20086;-50
2023/06/21 10:55:04;;;;;;;8.02;6.50;;;;;;;28.02;58.53;100793.81;4972091;28;20129;-53
2023/06/21 10:57:33;;;;;;;7.90;7.05;;;;;;;28.00;57.97;100798.56;4988101;28;20061;-53
2023/06/21 11:00:04;;;;;;;8.00;6.32;;;;;;;28.05;57.57;100804.19;4988430;28;20134;-55
2023/06/21 11:02:32;;;;;;;8.48;7.38;;;;;;;28.02;57.22;100808.16;4972725;28;20076;-54
2023/06/21 11:05:15;;;;;;;13.35;7.18;;;;;;;27.72;58.34;100799.44;4988855;28;20064;-53
2023/06/21 11:07:59;;;;;;;7.80;6.65;;;;;;;27.72;58.67;100815.69;4984883;28;20137;-53
2023/06/21 11:10:47;;;;;;;11.20;7.47;;;;;;;28.07;57.53;100809.44;4975095;28;20054;-55
2023/06/21 11:13:15;;;;;;;8.02;7.05;;;;;;;28.32;56.48;100804.31;4983609;28;20050;-52
2023/06/21 11:15:46;;;;;;;8.27;6.15;;;;;;;28.62;56.66;100797.59;4984491;28;20134;-52
2023/06/21 11:18:20;;;;;;;7.57;6.70;;;;;;;28.92;53.84;100798.06;4984330;28;20569;-57
2023/06/21 11:20:50;;;;;;;6.72;6.10;;;;;;;29.04;53.06;100805.59;4992977;28;20174;-53
2023/06/21 11:23:25;;;;;;;10.15;6.60;;;;;;;29.02;53.77;100820.22;4987936;28;20117;-52
2023/06/21 11:26:01;;;;;;;6.63;5.80;;;;;;;29.09;53.23;100809.38;4989605;28;20061;-54
2023/06/21 11:28:33;;;;;;;6.82;6.22;;;;;;;29.20;52.70;100789.78;4986249;28;20054;-54
2023/06/21 11:31:03;;;;;;;10.93;6.30;;;;;;;29.27;53.59;100793.31;4972588;28;20157;-53
2023/06/21 11:33:43;;;;;;;13.55;6.85;;;;;;;28.95;53.82;100813.06;4989091;28;20078;-52
2023/06/21 11:36:10;;;;;;;6.65;6.05;;;;;;;28.81;54.89;100805.97;4989086;28;20042;-55
2023/06/21 11:38:37;;;;;;;9.32;5.63;;;;;;;28.71;54.01;100820.75;4989529;28;20069;-53
2023/06/21 11:41:42;;;;;;;9.45;6.40;;;;;;;28.38;55.43;100815.22;4985159;28;20504;-51
2023/06/21 11:44:26;;;;;;;10.95;6.78;;;;;;;28.34;55.43;100822.06;4986771;28;20060;-53
2023/06/21 11:47:29;;;;;;;6.97;6.03;;;;;;;28.11;56.45;100825.06;4970338;28;20097;-53
2023/06/21 11:49:58;;;;;;;7.55;5.72;;;;;;;27.98;56.52;100827.72;4990342;28;20403;-54
2023/06/21 11:52:32;;;;;;;5.70;5.18;;;;;;;27.93;56.63;100835.59;4984394;28;20042;-50
2023/06/21 11:55:12;;;;;;;7.40;5.85;;;;;;;27.85;56.37;100839.28;4986899;28;20132;-53
2023/06/21 11:57:46;;;;;;;6.40;5.75;;;;;;;27.69;57.04;100835.00;4987024;28;20114;-54
2023/06/21 12:00:13;;;;;;;8.43;5.53;;;;;;;27.38;58.27;100845.31;4985504;28;20517;-55
2023/06/21 12:02:41;;;;;;;6.15;5.55;;;;;;;27.39;58.24;100849.72;4986567;28;20500;-54
2023/06/21 12:05:08;;;;;;;7.90;6.55;;;;;;;27.07;59.11;100862.72;4981479;28;20080;-52
2023/06/21 12:07:37;;;;;;;6.75;5.80;;;;;;;27.14;58.85;100857.38;4979465;28;20054;-54
2023/06/21 12:10:06;;;;;;;9.25;6.50;;;;;;;27.25;59.34;100855.00;4977870;28;20066;-50
2023/06/21 12:12:33;;;;;;;6.75;5.70;;;;;;;27.41;59.89;100866.56;4980067;28;20046;-51
2023/06/21 12:15:01;;;;;;;8.70;5.80;;;;;;;27.76;59.33;100862.94;4976635;28;20481;-53
2023/06/21 12:17:28;;;;;;;18.42;6.22;;;;;;;28.16;57.80;100860.50;4985894;28;20141;-54
2023/06/21 12:20:02;;;;;;;7.07;5.72;;;;;;;28.49;56.57;100860.66;4979651;28;20637;-55
2023/06/21 12:22:29;;;;;;;7.70;6.05;;;;;;;28.69;56.00;100851.81;4977353;28;20733;-50
2023/06/21 12:24:57;;;;;;;6.53;5.28;;;;;;;28.87;55.36;100856.66;4983495;28;20478;-54
2023/06/21 12:27:24;;;;;;;9.63;5.50;;;;;;;29.10;53.97;100867.97;4978557;28;20069;-54
2023/06/21 12:29:54;;;;;;;8.48;5.50;;;;;;;29.36;53.93;100869.03;4984172;28;20053;-52
2023/06/21 12:32:21;;;;;;;8.32;5.88;;;;;;;29.29;53.94;100879.88;4975953;28;20594;-53
2023/06/21 12:34:49;;;;;;;7.97;5.60;;;;;;;28.93;54.32;100869.38;4979154;28;20046;-51
2023/06/21 12:37:20;;;;;;;6.15;5.55;;;;;;;29.18;54.18;100865.06;4982483;28;20055;-54
2023/06/21 12:39:52;;;;;;;6.60;5.25;;;;;;;29.49;52.87;100883.44;4981549;28;20053;-53
2023/06/21 12:42:20;;;;;;;7.03;5.80;;;;;;;29.80;52.31;100875.72;4980914;28;20145;-55
2023/06/21 12:44:48;;;;;;;8.35;4.72;;;;;;;29.94;50.93;100875.50;4986173;28;20145;-50
2023/06/21 12:47:16;;;;;;;7.45;5.60;;;;;;;30.08;51.15;100886.31;4984041;28;20148;-54
2023/06/21 12:49:47;;;;;;;8.57;5.30;;;;;;;30.16;50.41;100891.56;4988909;28;20038;-52
2023/06/21 12:52:15;;;;;;;8.15;5.88;;;;;;;30.27;49.59;100899.06;4980019;28;20046;-52
2023/06/21 12:54:52;;;;;;;6.63;5.78;;;;;;;30.17;50.17;100899.53;4982959;28;20510;-52
2023/06/21 12:57:27;;;;;;;6.25;5.00;;;;;;;30.45;49.68;100890.25;4983327;28;20052;-53
2023/06/21 12:59:55;;;;;;;13.32;6.35;;;;;;;30.45;48.96;100901.94;4983659;28;20046;-50
2023/06/21 13:02:31;;;;;;;6.20;5.60;;;;;;;30.48;48.77;100882.47;4985118;28;20057;-51
2023/06/21 13:05:02;;;;;;;6.70;5.30;;;;;;;30.84;47.95;100882.97;4979710;28;20129;-54
2023/06/21 13:07:29;;;;;;;6.80;5.15;;;;;;;30.93;47.64;100897.97;4985194;28;20074;-54
2023/06/21 13:09:57;;;;;;;6.18;5.57;;;;;;;31.01;47.18;100884.13;4965508;28;20664;-54
2023/06/21 13:12:25;;;;;;;7.50;5.45;;;;;;;31.00;46.82;100887.91;4981471;28;20066;-53
2023/06/21 13:14:53;;;;;;;8.27;5.45;;;;;;;31.29;46.04;100891.09;4987665;28;20057;-52
2023/06/21 13:17:20;;;;;;;6.63;5.18;;;;;;;31.10;46.94;100888.25;4981945;28;20164;-53
2023/06/21 13:19:48;;;;;;;6.45;5.07;;;;;;;31.40;46.41;100879.50;4975914;28;20091;-52
2023/06/21 13:22:15;;;;;;;9.90;4.57;;;;;;;31.60;46.19;100880.16;4983242;28;20146;-55
2023/06/21 13:24:43;;;;;;;5.28;4.78;;;;;;;31.83;45.31;100890.44;4983025;28;20104;-53
2023/06/21 13:27:10;;;;;;;8.30;4.38;;;;;;;31.90;43.96;100884.94;4983445;28;20074;-55
2023/06/21 13:29:37;;;;;;;7.28;4.82;;;;;;;31.94;43.96;100894.34;4979081;28;20137;-51
2023/06/21 13:32:05;;;;;;;5.95;4.78;;;;;;;32.11;42.70;100889.97;4974378;28;20058;-52
2023/06/21 13:34:32;;;;;;;7.35;4.82;;;;;;;31.53;42.99;100882.13;4980452;28;20064;-55
2023/06/21 13:36:59;;;;;;;5.40;4.22;;;;;;;31.54;43.34;100883.78;4986434;28;20058;-56
2023/06/21 13:39:26;;;;;;;6.70;4.45;;;;;;;31.78;42.64;100885.63;4979052;28;20046;-54
2023/06/21 13:42:44;;;;;;;5.03;4.53;;;;;;;32.05;41.36;100885.41;4980417;28;20174;-52
2023/06/21 13:46:50;;;;;;;4.97;4.53;;;;;;;31.80;40.86;100871.00;4977972;28;20068;-53
2023/06/21 13:50:57;;;;;;;5.10;4.53;;;;;;;32.08;39.25;100871.34;4982005;28;20065;-51
2023/06/21 13:53:49;;;;;;;8.15;4.45;;;;;;;32.20;38.87;100869.53;4980713;28;20430;-52
2023/06/21 13:56:16;;;;;;;4.93;4.13;;;;;;;32.34;37.83;100870.22;4982376;28;20058;-55
2023/06/21 13:58:45;;;;;;;4.97;4.45;;;;;;;32.65;37.94;100880.13;4981070;28;20116;-53
2023/06/21 14:01:12;;;;;;;6.50;4.90;;;;;;;32.60;37.26;100865.50;4976875;28;20053;-53
2023/06/21 14:03:39;;;;;;;5.50;5.00;;;;;;;32.94;37.23;100862.13;4978751;28;20073;-55
2023/06/21 14:06:07;;;;;;;6.65;4.70;;;;;;;33.16;36.71;100858.88;4982152;28;20133;-54
2023/06/21 14:08:34;;;;;;;5.30;4.63;;;;;;;33.53;36.64;100864.16;4983602;28;20129;-51
2023/06/21 14:11:01;;;;;;;5.20;4.72;;;;;;;33.55;36.05;100862.03;4983637;28;20064;-56
2023/06/21 14:13:29;;;;;;;5.45;4.65;;;;;;;33.40;35.55;100866.03;4976513;28;20050;-54
2023/06/21 14:15:56;;;;;;;6.53;5.13;;;;;;;33.12;36.29;100868.59;4976506;28;20561;-52
2023/06/21 14:18:23;;;;;;;5.00;4.50;;;;;;;33.24;36.54;100874.91;4981863;28;20118;-52
2023/06/21 14:21:11;;;;;;;5.18;4.78;;;;;;;33.65;36.06;100873.22;4978440;28;20366;-54
2023/06/21 14:23:38;;;;;;;5.65;4.80;;;;;;;33.22;36.41;100871.56;4983643;28;20046;-54
2023/06/21 14:26:06;;;;;;;5.40;4.93;;;;;;;33.19;36.61;100861.16;4981341;28;20137;-51
2023/06/21 14:28:33;;;;;;;5.45;4.95;;;;;;;33.26;36.86;100865.41;4981544;28;20133;-51
2023/06/21 14:31:01;;;;;;;5.45;4.95;;;;;;;33.31;35.85;100867.44;4981992;28;20056;-51
2023/06/21 14:33:28;;;;;;;7.22;4.65;;;;;;;33.08;36.45;100868.22;4984092;28;20121;-54
2023/06/21 14:35:55;;;;;;;7.15;5.07;;;;;;;32.99;37.28;100875.91;4962963;28;20145;-54
2023/06/21 14:38:23;;;;;;;6.40;5.78;;;;;;;33.07;36.65;100874.75;4974281;28;20089;-53
2023/06/21 14:40:50;;;;;;;5.65;5.05;;;;;;;33.50;36.79;100870.91;4997122;28;20064;-51
2023/06/21 14:43:17;;;;;;;8.48;5.13;;;;;;;33.31;36.91;100872.06;4975908;28;20542;-55
2023/06/21 14:45:45;;;;;;;5.50;5.00;;;;;;;33.50;36.33;100871.78;4983195;28;20093;-56
2023/06/21 14:48:12;;;;;;;5.72;5.07;;;;;;;34.15;35.34;100876.28;4985024;28;20058;-53
2023/06/21 14:50:41;;;;;;;5.82;5.25;;;;;;;35.59;32.25;100888.09;4983192;28;20066;-53
2023/06/21 14:53:08;;;;;;;5.65;5.15;;;;;;;37.33;28.88;100896.56;4985407;28;20046;-52
2023/06/21 14:55:35;;;;;;;6.70;6.10;;;;;;;38.37;27.51;100889.59;4985983;28;20141;-56
2023/06/21 14:58:03;;;;;;;5.78;5.28;;;;;;;39.01;26.94;100894.78;4967784;28;20129;-53
2023/06/21 15:00:30;;;;;;;7.07;5.35;;;;;;;39.93;26.20;100889.25;4983055;28;20501;-54
2023/06/21 15:02:59;;;;;;;6.95;6.25;;;;;;;41.08;24.90;100909.47;4985728;28;20054;-52
2023/06/21 15:05:27;;;;;;;6.15;5.55;;;;;;;41.01;23.84;100897.91;4983135;28;20046;-53
2023/06/21 15:07:57;;;;;;;6.60;6.00;;;;;;;39.53;25.22;100890.94;4983112;28;23148;-52